createdAt,value
2023-09-10T00:00:35.053Z,49.2
2023-09-10T00:01:59.207Z,49.2
2023-09-10T00:03:24.295Z,49.1
2023-09-10T00:04:50.446Z,48.9
2023-09-10T00:06:14.454Z,49
2023-09-10T00:07:39.680Z,48.9
2023-09-10T00:09:03.703Z,48.9
2023-09-10T00:10:28.943Z,49.1
2023-09-10T00:11:52.910Z,49.3
2023-09-10T00:13:17.019Z,49.2
2023-09-10T00:14:41.114Z,49.2
2023-09-10T00:16:06.394Z,49.2
2023-09-10T00:17:30.347Z,49.2
2023-09-10T00:18:55.510Z,49.1
2023-09-10T00:20:20.553Z,49.1
2023-09-10T00:21:40.830Z,48.8
2023-09-10T00:23:05.029Z,48.6
2023-09-10T00:24:30.984Z,48.4
2023-09-10T00:25:58.139Z,48.1
2023-09-10T00:27:07.641Z,47.8
2023-09-10T00:28:31.995Z,47.6
2023-09-10T00:29:55.994Z,47.5
2023-09-10T00:31:20.213Z,47.4
2023-09-10T00:32:44.372Z,47.6
2023-09-10T00:34:08.355Z,47.6
2023-09-10T00:35:33.573Z,47.5
2023-09-10T00:36:57.544Z,47.4
2023-09-10T00:38:21.670Z,47.9
2023-09-10T00:39:45.743Z,48.5
2023-09-10T00:40:58.383Z,48.6
2023-09-10T00:42:22.433Z,48.5
2023-09-10T00:43:28.440Z,48.5
2023-09-10T00:44:55.382Z,48.4
2023-09-10T00:46:05.912Z,48.1
2023-09-10T00:47:33.178Z,48.1
2023-09-10T00:48:58.270Z,48.2
2023-09-10T00:50:05.004Z,48.2
2023-09-10T00:51:31.228Z,48.3
2023-09-10T00:52:55.378Z,48.5
2023-09-10T00:54:21.474Z,48.7
2023-09-10T00:55:45.602Z,49
2023-09-10T00:57:10.703Z,49
2023-09-10T00:58:34.859Z,48.9
2023-09-10T00:59:59.934Z,49
2023-09-10T01:01:28.073Z,48.9
2023-09-10T01:02:52.209Z,49.1
2023-09-10T01:04:16.234Z,49.4
2023-09-10T01:05:40.360Z,49.8
2023-09-10T01:07:04.428Z,49.9
2023-09-10T01:08:28.550Z,50.1
2023-09-10T01:09:52.694Z,49.9
2023-09-10T01:11:16.745Z,49.8
2023-09-10T01:12:40.897Z,49.9
2023-09-10T01:14:05.068Z,50.1
2023-09-10T01:15:22.005Z,50.4
2023-09-10T01:16:46.614Z,50.5
2023-09-10T01:18:10.614Z,50.6
2023-09-10T01:19:34.771Z,50.5
2023-09-10T01:20:58.825Z,50.3
2023-09-10T01:22:22.885Z,50.4
2023-09-10T01:23:43.206Z,50.6
2023-09-10T01:25:09.286Z,50.5
2023-09-10T01:26:33.542Z,50.4
2023-09-10T01:27:58.551Z,50.4
2023-09-10T01:29:23.593Z,50.5
2023-09-10T01:30:48.773Z,50.6
2023-09-10T01:32:12.848Z,50.6
2023-09-10T01:33:18.768Z,50.8
2023-09-10T01:34:44.850Z,51
2023-09-10T01:36:08.946Z,50.9
2023-09-10T01:37:34.020Z,50.7
2023-09-10T01:38:59.120Z,50.6
2023-09-10T01:40:23.212Z,50.5
2023-09-10T01:41:48.398Z,50.4
2023-09-10T01:43:12.424Z,50.6
2023-09-10T01:44:37.548Z,50.8
2023-09-10T01:46:01.762Z,50.7
2023-09-10T01:47:26.906Z,50.7
2023-09-10T01:48:50.839Z,50.7
2023-09-10T01:50:15.965Z,50.7
2023-09-10T01:51:40.032Z,50.7
2023-09-10T01:53:05.194Z,50.7
2023-09-10T01:54:29.303Z,50.6
2023-09-10T01:55:53.447Z,50.8
2023-09-10T01:57:17.522Z,50.9
2023-09-10T01:58:42.816Z,50.9
2023-09-10T02:00:06.809Z,50.8
2023-09-10T02:01:31.829Z,50.6
2023-09-10T02:02:55.986Z,50.4
2023-09-10T02:04:21.156Z,50.4
2023-09-10T02:05:26.758Z,50.4
2023-09-10T02:06:53.113Z,50.8
2023-09-10T02:08:18.139Z,51.1
2023-09-10T02:09:42.187Z,51.6
2023-09-10T02:10:48.964Z,51.9
2023-09-10T02:12:13.147Z,52
2023-09-10T02:13:37.692Z,52
2023-09-10T02:15:02.497Z,52
2023-09-10T02:16:26.570Z,51.7
2023-09-10T02:17:50.645Z,51.2
2023-09-10T02:19:14.693Z,50.7
2023-09-10T02:20:38.898Z,50.3
2023-09-10T02:22:03.303Z,50.2
2023-09-10T02:23:27.986Z,50.2
2023-09-10T02:24:52.242Z,50.1
2023-09-10T02:26:16.312Z,50.2
2023-09-10T02:27:40.348Z,50.1
2023-09-10T02:29:04.524Z,50
2023-09-10T02:30:28.592Z,50
2023-09-10T02:31:52.751Z,50.3
2023-09-10T02:33:16.837Z,50.5
2023-09-10T02:34:40.878Z,51.1
2023-09-10T02:35:57.449Z,51.2
2023-09-10T02:37:21.318Z,51.3
2023-09-10T02:38:45.469Z,51.4
2023-09-10T02:40:09.575Z,51.2
2023-09-10T02:41:33.683Z,50.9
2023-09-10T02:42:57.813Z,51
2023-09-10T02:44:21.936Z,51.1
2023-09-10T02:45:46.173Z,50.9
2023-09-10T02:47:10.153Z,50.9
2023-09-10T02:48:34.268Z,50.7
2023-09-10T02:49:59.375Z,50.2
2023-09-10T02:51:05.056Z,50
2023-09-10T02:52:31.271Z,50
2023-09-10T02:53:36.908Z,49.9
2023-09-10T02:55:04.273Z,50.1
2023-09-10T02:56:31.354Z,50.2
2023-09-10T02:57:57.493Z,50.4
2023-09-10T02:59:21.640Z,50.5
2023-09-10T03:00:45.708Z,50.6
2023-09-10T03:02:11.966Z,50.8
2023-09-10T03:03:36.014Z,50.9
2023-09-10T03:04:52.334Z,50.9
2023-09-10T03:06:16.438Z,50.8
2023-09-10T03:07:40.655Z,50.8
2023-09-10T03:09:04.631Z,50.8
2023-09-10T03:10:28.713Z,50.8
2023-09-10T03:11:48.982Z,50.7
2023-09-10T03:13:14.097Z,51
2023-09-10T03:14:22.760Z,50.8
2023-09-10T03:15:46.958Z,50.7
2023-09-10T03:17:11.016Z,50.8
2023-09-10T03:18:33.283Z,50.9
2023-09-10T03:19:57.365Z,51.3
2023-09-10T03:21:17.588Z,51.6
2023-09-10T03:22:41.713Z,51.4
2023-09-10T03:24:05.826Z,51.4
2023-09-10T03:25:29.916Z,51.4
2023-09-10T03:26:54.310Z,51.2
2023-09-10T03:28:18.145Z,51.1
2023-09-10T03:29:42.214Z,51
2023-09-10T03:30:54.898Z,51.1
2023-09-10T03:31:55.915Z,51.1
2023-09-10T03:33:00.756Z,51
2023-09-10T03:34:01.679Z,51.2
2023-09-10T03:35:02.637Z,51.6
2023-09-10T03:36:11.501Z,51.7
2023-09-10T03:37:23.923Z,51.1
2023-09-10T03:38:40.638Z,50.9
2023-09-10T03:39:52.856Z,50.9
2023-09-10T03:40:53.877Z,50.9
2023-09-10T03:41:54.913Z,51.1
2023-09-10T03:42:55.856Z,51.3
2023-09-10T03:43:56.861Z,51.4
2023-09-10T03:44:57.926Z,51.5
2023-09-10T03:45:58.860Z,51.4
2023-09-10T03:46:59.960Z,51.4
2023-09-10T03:48:00.862Z,51.5
2023-09-10T03:49:01.851Z,51.6
2023-09-10T03:50:02.898Z,51.8
2023-09-10T03:51:03.814Z,51.8
2023-09-10T03:52:05.044Z,51.7
2023-09-10T03:53:05.857Z,51.5
2023-09-10T03:54:06.859Z,51.4
2023-09-10T03:55:07.940Z,51.3
2023-09-10T03:56:08.864Z,51.2
2023-09-10T03:57:09.826Z,51.1
2023-09-10T03:58:10.802Z,51
2023-09-10T03:59:11.856Z,50.7
2023-09-10T04:00:12.875Z,50.5
2023-09-10T04:01:13.903Z,50.5
2023-09-10T04:02:14.839Z,50.8
2023-09-10T04:03:15.894Z,51
2023-09-10T04:04:16.836Z,51.2
2023-09-10T04:05:17.934Z,51.1
2023-09-10T04:06:18.843Z,51.1
2023-09-10T04:07:19.831Z,51.2
2023-09-10T04:08:21.066Z,51.1
2023-09-10T04:09:21.833Z,51
2023-09-10T04:10:22.865Z,51.1
2023-09-10T04:11:23.849Z,51.1
2023-09-10T04:12:24.852Z,51
2023-09-10T04:13:25.834Z,50.9
2023-09-10T04:14:26.835Z,51
2023-09-10T04:15:27.865Z,51
2023-09-10T04:16:28.864Z,51
2023-09-10T04:17:30.048Z,51
2023-09-10T04:18:30.872Z,51
2023-09-10T04:19:31.897Z,51
2023-09-10T04:20:32.817Z,50.9
2023-09-10T04:21:33.848Z,50.8
2023-09-10T04:22:34.845Z,50.8
2023-09-10T04:23:35.825Z,50.8
2023-09-10T04:24:36.835Z,51
2023-09-10T04:25:38.026Z,51.1
2023-09-10T04:26:38.860Z,51.3
2023-09-10T04:27:39.848Z,51.6
2023-09-10T04:28:41.134Z,51.6
2023-09-10T04:29:41.838Z,51.6
2023-09-10T04:30:42.875Z,51.7
2023-09-10T04:31:43.959Z,51.8
2023-09-10T04:32:44.885Z,51.8
2023-09-10T04:33:45.834Z,51.2
2023-09-10T04:34:46.886Z,51.6
2023-09-10T04:35:47.858Z,51.7
2023-09-10T04:36:51.581Z,51.6
2023-09-10T04:37:49.879Z,51.4
2023-09-10T04:38:50.846Z,51.3
2023-09-10T04:39:51.827Z,51.4
2023-09-10T04:40:52.957Z,51.3
2023-09-10T04:41:53.880Z,51
2023-09-10T04:42:54.890Z,51.1
2023-09-10T04:43:55.913Z,51.2
2023-09-10T04:44:56.830Z,51.3
2023-09-10T04:45:57.869Z,51.3
2023-09-10T04:46:58.867Z,51.2
2023-09-10T04:47:59.900Z,51.1
2023-09-10T04:49:00.857Z,50.9
2023-09-10T04:50:01.914Z,50.8
2023-09-10T04:51:02.836Z,50.9
2023-09-10T04:52:03.891Z,50.9
2023-09-10T04:53:04.928Z,51.2
2023-09-10T04:54:05.844Z,51.4
2023-09-10T04:55:06.858Z,51.8
2023-09-10T04:56:07.980Z,51.8
2023-09-10T04:57:08.888Z,51.6
2023-09-10T04:58:09.861Z,51.6
2023-09-10T04:59:10.938Z,51.7
2023-09-10T05:00:11.842Z,51.9
2023-09-10T05:01:12.888Z,51.7
2023-09-10T05:02:14.013Z,51.7
2023-09-10T05:03:15.029Z,51.8
2023-09-10T05:04:15.907Z,51.9
2023-09-10T05:05:16.896Z,52
2023-09-10T05:06:17.845Z,51.9
2023-09-10T05:07:18.922Z,51.9
2023-09-10T05:08:19.870Z,51.9
2023-09-10T05:09:21.120Z,52.1
2023-09-10T05:10:21.856Z,52.3
2023-09-10T05:11:22.881Z,52.2
2023-09-10T05:12:23.846Z,51.8
2023-09-10T05:13:24.885Z,52.3
2023-09-10T05:14:25.956Z,52.5
2023-09-10T05:15:26.859Z,52.5
2023-09-10T05:16:27.888Z,52.5
2023-09-10T05:17:28.993Z,52.5
2023-09-10T05:18:29.873Z,52.3
2023-09-10T05:19:30.869Z,52.3
2023-09-10T05:20:31.850Z,51.9
2023-09-10T05:21:32.867Z,52.7
2023-09-10T05:22:33.891Z,53.1
2023-09-10T05:23:34.864Z,53.1
2023-09-10T05:24:35.913Z,53
2023-09-10T05:25:36.862Z,52.7
2023-09-10T05:26:37.863Z,52.2
2023-09-10T05:27:38.891Z,52.2
2023-09-10T05:28:40.044Z,52.3
2023-09-10T05:29:40.876Z,52.4
2023-09-10T05:30:41.881Z,52.6
2023-09-10T05:31:42.973Z,52.8
2023-09-10T05:32:44.032Z,52.5
2023-09-10T05:33:44.877Z,52.4
2023-09-10T05:34:45.919Z,52.2
2023-09-10T05:35:46.884Z,52.2
2023-09-10T05:36:47.867Z,52.2
2023-09-10T05:37:48.937Z,52.3
2023-09-10T05:38:49.866Z,52.4
2023-09-10T05:39:50.916Z,52.5
2023-09-10T05:40:51.889Z,52.5
2023-09-10T05:41:52.877Z,52.5
2023-09-10T05:42:53.901Z,52.5
2023-09-10T05:43:54.916Z,52.4
2023-09-10T05:44:55.901Z,52.2
2023-09-10T05:45:56.954Z,52
2023-09-10T05:46:57.888Z,51.8
2023-09-10T05:47:58.969Z,51.4
2023-09-10T05:48:59.915Z,51.1
2023-09-10T05:50:00.963Z,51.2
2023-09-10T05:51:01.887Z,50.6
2023-09-10T05:52:10.685Z,50.2
2023-09-10T05:53:27.046Z,50.5
2023-09-10T05:54:53.253Z,50
2023-09-10T05:56:13.469Z,49.3
2023-09-10T05:57:39.539Z,48.7
2023-09-10T05:59:05.648Z,48.1
2023-09-10T06:00:14.708Z,47.5
2023-09-10T06:01:40.670Z,47.3
2023-09-10T06:03:00.745Z,46.9
2023-09-10T06:04:17.249Z,46.7
2023-09-10T06:05:22.142Z,46.6
2023-09-10T06:06:30.697Z,45.9
2023-09-10T06:07:54.003Z,46.1
2023-09-10T06:09:06.493Z,46.1
2023-09-10T06:10:19.066Z,45.8
2023-09-10T06:11:46.185Z,46
2023-09-10T06:13:06.478Z,46.1
2023-09-10T06:14:16.149Z,46.2
2023-09-10T06:15:28.755Z,45.5
2023-09-10T06:16:37.450Z,45.6
2023-09-10T06:17:46.114Z,45.6
2023-09-10T06:18:54.814Z,45.6
2023-09-10T06:20:00.613Z,45.6
2023-09-10T06:21:04.464Z,45.3
2023-09-10T06:22:09.319Z,45.4
2023-09-10T06:23:21.961Z,45
2023-09-10T06:24:34.557Z,44.7
2023-09-10T06:25:39.274Z,44.5
2023-09-10T06:26:51.885Z,44.9
2023-09-10T06:28:08.383Z,45
2023-09-10T06:29:20.855Z,45.5
2023-09-10T06:30:33.433Z,45.7
2023-09-10T06:31:49.810Z,45.7
2023-09-10T06:33:10.289Z,45.6
2023-09-10T06:34:36.154Z,45.3
2023-09-10T06:35:52.525Z,45
2023-09-10T06:37:09.488Z,43.7
2023-09-10T06:38:30.800Z,43.5
2023-09-10T06:39:56.335Z,43.5
2023-09-10T06:41:20.490Z,43.5
2023-09-10T06:42:40.719Z,43.5
2023-09-10T06:44:04.939Z,43.1
2023-09-10T06:45:32.398Z,43.2
2023-09-10T06:46:58.064Z,43.2
2023-09-10T06:48:18.236Z,43.3
2023-09-10T06:49:43.528Z,43.1
2023-09-10T06:51:09.532Z,43.2
2023-09-10T06:52:35.648Z,43.1
2023-09-10T06:54:00.784Z,43.1
2023-09-10T06:55:26.898Z,43.1
2023-09-10T06:56:53.881Z,42.9
2023-09-10T06:58:19.009Z,42.4
2023-09-10T06:59:27.727Z,41.9
2023-09-10T07:00:53.907Z,41.5
2023-09-10T07:02:20.026Z,41.5
2023-09-10T07:03:29.407Z,41.7
2023-09-10T07:04:46.313Z,41.6
2023-09-10T07:06:11.217Z,41.1
2023-09-10T07:07:35.266Z,40.3
2023-09-10T07:08:59.404Z,39.3
2023-09-10T07:10:23.493Z,38.8
2023-09-10T07:11:47.720Z,38.7
2023-09-10T07:13:11.742Z,38.2
2023-09-10T07:14:35.794Z,38.3
2023-09-10T07:15:59.977Z,38.2
2023-09-10T07:17:24.099Z,38.3
2023-09-10T07:18:48.094Z,38.4
2023-09-10T07:20:12.278Z,38.9
2023-09-10T07:21:36.464Z,39
2023-09-10T07:23:00.439Z,38.6
2023-09-10T07:24:26.592Z,38.1
2023-09-10T07:25:50.694Z,37.8
2023-09-10T07:27:03.168Z,38
2023-09-10T07:28:23.497Z,37.1
2023-09-10T07:29:28.483Z,36.1
2023-09-10T07:30:52.404Z,36.2
2023-09-10T07:32:17.621Z,36
2023-09-10T07:33:41.646Z,35.6
2023-09-10T07:35:05.754Z,35.1
2023-09-10T07:36:29.838Z,34.9
2023-09-10T07:37:53.936Z,34.4
2023-09-10T07:39:18.107Z,33.9
2023-09-10T07:40:42.329Z,34.1
2023-09-10T07:41:55.013Z,34
2023-09-10T07:43:04.977Z,33.7
2023-09-10T07:44:28.741Z,32.6
2023-09-10T07:45:52.862Z,32.3
2023-09-10T07:47:18.939Z,31.7
2023-09-10T07:48:35.892Z,31.9
2023-09-10T07:49:52.744Z,31.3
2023-09-10T07:51:17.802Z,30.9
2023-09-10T07:52:41.865Z,31.4
2023-09-10T07:54:08.005Z,30.9
2023-09-10T07:55:33.167Z,30
2023-09-10T07:56:58.472Z,29.6
2023-09-10T07:58:22.516Z,29.5
2023-09-10T07:59:42.622Z,29.4
2023-09-10T08:00:43.696Z,29.8
2023-09-10T08:01:52.284Z,29.7
2023-09-10T08:03:12.684Z,30.2
2023-09-10T08:04:17.503Z,30.9
2023-09-10T08:05:42.546Z,31.1
2023-09-10T08:07:07.683Z,30.8
2023-09-10T08:08:24.228Z,29.5
2023-09-10T08:09:48.315Z,28.9
2023-09-10T08:11:12.308Z,28.1
2023-09-10T08:12:36.412Z,27.9
2023-09-10T08:14:00.597Z,28.1
2023-09-10T08:15:24.654Z,27.7
2023-09-10T08:16:48.876Z,27.5
2023-09-10T08:18:13.284Z,27
2023-09-10T08:19:36.965Z,26.6
2023-09-10T08:20:57.395Z,26
2023-09-10T08:22:21.679Z,26
2023-09-10T08:23:27.335Z,24.7
2023-09-10T08:24:32.592Z,23.4
2023-09-10T08:25:57.160Z,23.6
2023-09-10T08:27:09.900Z,23.7
2023-09-10T08:28:22.215Z,22.8
2023-09-10T08:29:35.229Z,22.8
2023-09-10T08:30:59.927Z,23.1
2023-09-10T08:32:24.102Z,23.5
2023-09-10T08:33:32.660Z,24.1
2023-09-10T08:34:33.653Z,23.8
2023-09-10T08:35:34.601Z,23.5
2023-09-10T08:36:39.528Z,23.4
2023-09-10T08:37:54.166Z,23.5
2023-09-10T08:38:58.951Z,24.7
2023-09-10T08:40:11.675Z,24.9
2023-09-10T08:41:16.326Z,25.6
2023-09-10T08:42:36.702Z,26.1
2023-09-10T08:43:45.301Z,24.9
2023-09-10T08:44:46.247Z,24.3
2023-09-10T08:46:09.589Z,24.1
2023-09-10T08:47:33.644Z,23.5
2023-09-10T08:48:50.060Z,23.4
2023-09-10T08:50:14.180Z,24
2023-09-10T08:51:26.670Z,23.9
2023-09-10T08:52:35.666Z,24
2023-09-10T08:53:47.981Z,22.7
2023-09-10T08:55:12.130Z,22.4
2023-09-10T08:56:35.281Z,22.1
2023-09-10T08:57:57.625Z,22.2
2023-09-10T08:59:10.224Z,22.1
2023-09-10T09:00:27.534Z,21.5
2023-09-10T09:01:56.668Z,20.9
2023-09-10T09:03:24.065Z,21.4
2023-09-10T09:04:48.025Z,22.1
2023-09-10T09:06:11.972Z,22.3
2023-09-10T09:07:33.236Z,22.6
2023-09-10T09:08:38.517Z,22.3
2023-09-10T09:09:42.930Z,22.5
2023-09-10T09:10:47.831Z,22.8
2023-09-10T09:12:04.210Z,22.8
2023-09-10T09:13:20.595Z,23.1
2023-09-10T09:14:37.063Z,23
2023-09-10T09:16:03.146Z,22.9
2023-09-10T09:17:19.548Z,23
2023-09-10T09:18:36.019Z,23
2023-09-10T09:19:52.294Z,22.7
2023-09-10T09:21:09.757Z,22.5
2023-09-10T09:22:22.279Z,21.2
2023-09-10T09:23:48.394Z,21
2023-09-10T09:25:04.858Z,20.6
2023-09-10T09:26:24.206Z,21.1
2023-09-10T09:27:29.004Z,21.4
2023-09-10T09:28:52.646Z,21.5
2023-09-10T09:30:16.396Z,21.7
2023-09-10T09:31:41.894Z,21.9
2023-09-10T09:32:54.350Z,21.7
2023-09-10T09:34:06.907Z,21.2
2023-09-10T09:35:31.056Z,20.7
2023-09-10T09:36:56.127Z,20.5
2023-09-10T09:38:16.373Z,20
2023-09-10T09:39:33.039Z,19.4
2023-09-10T09:41:00.518Z,19.1
2023-09-10T09:42:03.712Z,19.6
2023-09-10T09:43:17.117Z,18.8
2023-09-10T09:44:29.811Z,19
2023-09-10T09:45:43.689Z,19.5
2023-09-10T09:46:53.477Z,19.7
2023-09-10T09:47:54.379Z,20.2
2023-09-10T09:48:55.412Z,20.3
2023-09-10T09:50:00.380Z,20.7
2023-09-10T09:51:20.659Z,20.5
2023-09-10T09:52:21.684Z,20.5
2023-09-10T09:53:22.635Z,20
2023-09-10T09:54:23.594Z,20
2023-09-10T09:55:29.460Z,20.1
2023-09-10T09:56:42.112Z,20.2
2023-09-10T09:57:56.627Z,20.2
2023-09-10T09:59:01.546Z,20.3
2023-09-10T10:00:10.332Z,20.9
2023-09-10T10:01:18.978Z,20.4
2023-09-10T10:02:27.791Z,20.8
2023-09-10T10:03:44.087Z,18.7
2023-09-10T10:04:48.908Z,17.4
2023-09-10T10:05:49.784Z,16.8
2023-09-10T10:06:50.780Z,16.3
2023-09-10T10:07:52.879Z,17.1
2023-09-10T10:09:00.507Z,17.6
2023-09-10T10:10:01.602Z,17.6
2023-09-10T10:11:02.547Z,17.6
2023-09-10T10:12:11.201Z,16
2023-09-10T10:13:12.222Z,15.4
2023-09-10T10:14:13.285Z,16.7
2023-09-10T10:15:14.245Z,18.1
2023-09-10T10:16:15.260Z,18
2023-09-10T10:17:16.287Z,18.4
2023-09-10T10:18:21.132Z,18.2
2023-09-10T10:19:22.069Z,18.6
2023-09-10T10:20:23.188Z,18.6
2023-09-10T10:21:24.059Z,18.2
2023-09-10T10:22:25.144Z,17.9
2023-09-10T10:23:53.268Z,18
2023-09-10T10:25:13.497Z,18
2023-09-10T10:26:32.102Z,17.9
2023-09-10T10:27:48.326Z,18.1
2023-09-10T10:28:56.939Z,17.5
2023-09-10T10:29:57.950Z,16.7
2023-09-10T10:31:06.708Z,16.3
2023-09-10T10:32:19.267Z,16
2023-09-10T10:33:31.813Z,16.4
2023-09-10T10:34:32.762Z,16.4
2023-09-10T10:35:33.762Z,15.8
2023-09-10T10:36:42.654Z,15.3
2023-09-10T10:38:02.734Z,15.8
2023-09-10T10:39:13.520Z,15.3
2023-09-10T10:40:14.599Z,14.9
2023-09-10T10:41:23.226Z,14.8
2023-09-10T10:42:31.957Z,14.8
2023-09-10T10:43:40.749Z,15.3
2023-09-10T10:44:45.388Z,15
2023-09-10T10:45:46.383Z,14.9
2023-09-10T10:46:47.367Z,13.6
2023-09-10T10:47:52.289Z,13.2
2023-09-10T10:49:05.033Z,13.2
2023-09-10T10:50:17.824Z,13
2023-09-10T10:51:49.888Z,13.2
2023-09-10T10:52:57.235Z,13.1
2023-09-10T10:54:05.975Z,13.8
2023-09-10T10:55:14.564Z,14
2023-09-10T10:56:34.920Z,13.7
2023-09-10T10:57:48.150Z,13.5
2023-09-10T10:59:04.905Z,12.9
2023-09-10T11:00:13.669Z,11.7
2023-09-10T11:01:33.807Z,11.3
2023-09-10T11:02:50.257Z,10.9
2023-09-10T11:04:10.458Z,10.5
2023-09-10T11:05:15.355Z,9.7
2023-09-10T11:06:20.124Z,9.9
2023-09-10T11:07:33.697Z,10.6
2023-09-10T11:08:38.565Z,10.6
2023-09-10T11:09:55.134Z,9.7
2023-09-10T11:11:12.427Z,9.8
2023-09-10T11:12:32.671Z,9.9
2023-09-10T11:13:40.697Z,10.1
2023-09-10T11:15:04.647Z,9.6
2023-09-10T11:16:29.123Z,9.6
2023-09-10T11:17:42.385Z,9.6
2023-09-10T11:18:54.867Z,9.7
2023-09-10T11:20:20.916Z,9.8
2023-09-10T11:21:36.339Z,9.9
2023-09-10T11:22:56.610Z,10.4
2023-09-10T11:24:09.126Z,9.9
2023-09-10T11:25:17.778Z,9.9
2023-09-10T11:26:22.749Z,9
2023-09-10T11:27:36.336Z,9
2023-09-10T11:29:00.494Z,9.2
2023-09-10T11:30:24.474Z,9.5
2023-09-10T11:31:41.086Z,10.2
2023-09-10T11:32:57.335Z,9.9
2023-09-10T11:34:20.582Z,9.5
2023-09-10T11:35:40.845Z,8.8
2023-09-10T11:37:05.107Z,8.5
2023-09-10T11:38:21.527Z,8.3
2023-09-10T11:39:46.480Z,8.3
2023-09-10T11:40:51.797Z,8.5
2023-09-10T11:42:12.623Z,9.5
2023-09-10T11:43:28.888Z,9.6
2023-09-10T11:44:33.893Z,10.2
2023-09-10T11:45:38.627Z,9.6
2023-09-10T11:46:47.033Z,9.1
2023-09-10T11:48:02.174Z,9.2
2023-09-10T11:49:06.932Z,9.4
2023-09-10T11:50:15.585Z,10.6
2023-09-10T11:51:20.373Z,11.3
2023-09-10T11:52:42.793Z,10.8
2023-09-10T11:53:43.671Z,11
2023-09-10T11:55:00.117Z,11.2
2023-09-10T11:56:16.635Z,11.4
2023-09-10T11:57:29.175Z,11
2023-09-10T11:58:33.909Z,10.5
2023-09-10T11:59:59.039Z,10.4
2023-09-10T12:01:11.597Z,10
2023-09-10T12:02:20.443Z,9.5
2023-09-10T12:03:36.809Z,9.6
2023-09-10T12:04:53.155Z,10
2023-09-10T12:06:17.260Z,9.7
2023-09-10T12:07:33.563Z,9.8
2023-09-10T12:08:53.840Z,9.9
2023-09-10T12:10:14.496Z,9.5
2023-09-10T12:11:27.078Z,9
2023-09-10T12:12:35.476Z,8.7
2023-09-10T12:13:36.930Z,9.1
2023-09-10T12:14:42.428Z,9.3
2023-09-10T12:15:59.879Z,9.7
2023-09-10T12:17:23.929Z,10
2023-09-10T12:18:49.026Z,9.6
2023-09-10T12:20:14.207Z,9.3
2023-09-10T12:21:22.805Z,9.2
2023-09-10T12:22:27.685Z,9.2
2023-09-10T12:23:40.490Z,9.3
2023-09-10T12:24:48.938Z,9.7
2023-09-10T12:25:53.804Z,10.7
2023-09-10T12:27:02.449Z,10.8
2023-09-10T12:28:22.752Z,10
2023-09-10T12:29:43.072Z,10.4
2023-09-10T12:30:52.098Z,10.3
2023-09-10T12:32:04.533Z,9.6
2023-09-10T12:33:20.772Z,9.1
2023-09-10T12:34:31.536Z,9.6
2023-09-10T12:35:59.653Z,9.9
2023-09-10T12:37:14.226Z,9.3
2023-09-10T12:38:26.808Z,8.8
2023-09-10T12:39:43.070Z,8.7
2023-09-10T12:41:05.426Z,8.8
2023-09-10T12:42:21.844Z,8.5
2023-09-10T12:43:34.693Z,8.6
2023-09-10T12:44:40.843Z,8.5
2023-09-10T12:46:00.596Z,8
2023-09-10T12:47:18.378Z,7.4
2023-09-10T12:48:44.555Z,7.3
2023-09-10T12:50:09.358Z,7.5
2023-09-10T12:51:31.542Z,7.6
2023-09-10T12:52:55.948Z,8.5
2023-09-10T12:54:19.767Z,9.1
2023-09-10T12:55:40.102Z,9.5
2023-09-10T12:56:52.474Z,8.9
2023-09-10T12:58:14.719Z,8.9
2023-09-10T12:59:36.037Z,8.8
2023-09-10T13:00:56.260Z,9.1
2023-09-10T13:02:05.251Z,8.8
2023-09-10T13:03:06.088Z,8.1
2023-09-10T13:04:14.689Z,8.3
2023-09-10T13:05:19.582Z,8.1
2023-09-10T13:06:41.759Z,7.9
2023-09-10T13:07:50.476Z,8.2
2023-09-10T13:08:55.345Z,7.4
2023-09-10T13:09:56.308Z,6.9
2023-09-10T13:11:10.966Z,6.8
2023-09-10T13:12:19.535Z,7
2023-09-10T13:13:24.433Z,7.5
2023-09-10T13:14:38.989Z,8.1
2023-09-10T13:15:47.656Z,8.3
2023-09-10T13:17:11.594Z,8
2023-09-10T13:18:18.804Z,7.7
2023-09-10T13:19:42.821Z,7.1
2023-09-10T13:21:06.925Z,7.7
2023-09-10T13:22:27.439Z,8.3
2023-09-10T13:23:48.504Z,7.9
2023-09-10T13:25:02.949Z,7.5
2023-09-10T13:26:29.100Z,6.4
2023-09-10T13:27:45.417Z,7
2023-09-10T13:28:55.649Z,6.8
2023-09-10T13:30:18.486Z,6.7
2023-09-10T13:31:41.813Z,7
2023-09-10T13:32:46.621Z,7.3
2023-09-10T13:34:03.207Z,7.4
2023-09-10T13:35:19.355Z,7.4
2023-09-10T13:36:28.151Z,7.3
2023-09-10T13:37:52.461Z,7
2023-09-10T13:39:16.270Z,6.9
2023-09-10T13:40:34.798Z,6.7
2023-09-10T13:41:55.921Z,7.4
2023-09-10T13:43:00.786Z,7.8
2023-09-10T13:44:13.483Z,7.7
2023-09-10T13:45:35.662Z,7.1
2023-09-10T13:46:59.806Z,7.1
2023-09-10T13:48:23.879Z,7
2023-09-10T13:49:49.038Z,6.6
2023-09-10T13:51:14.193Z,6
2023-09-10T13:52:39.131Z,5.8
2023-09-10T13:54:04.275Z,5.6
2023-09-10T13:55:20.661Z,5.9
2023-09-10T13:56:26.271Z,6
2023-09-10T13:57:50.719Z,5.9
2023-09-10T13:59:03.479Z,6.2
2023-09-10T14:00:24.013Z,6.3
2023-09-10T14:01:40.964Z,5.5
2023-09-10T14:03:05.136Z,5.2
2023-09-10T14:04:25.670Z,5.1
2023-09-10T14:05:38.113Z,4.5
2023-09-10T14:07:06.535Z,4.8
2023-09-10T14:08:31.119Z,4.9
2023-09-10T14:09:51.333Z,5.4
2023-09-10T14:11:18.520Z,5.5
2023-09-10T14:12:43.937Z,5.2
2023-09-10T14:14:09.612Z,5.4
2023-09-10T14:15:33.702Z,5.3
2023-09-10T14:16:58.878Z,5
2023-09-10T14:18:23.974Z,5.5
2023-09-10T14:19:33.097Z,5.7
2023-09-10T14:20:44.321Z,5.3
2023-09-10T14:22:09.496Z,5.3
2023-09-10T14:23:34.601Z,5.2
2023-09-10T14:24:42.888Z,5.2
2023-09-10T14:26:08.575Z,5.3
2023-09-10T14:27:17.272Z,5.4
2023-09-10T14:28:44.478Z,5.5
2023-09-10T14:29:49.801Z,5.6
2023-09-10T14:31:16.297Z,6.1
2023-09-10T14:32:41.512Z,5.9
2023-09-10T14:34:07.572Z,5.9
2023-09-10T14:35:12.906Z,5.8
2023-09-10T14:36:37.507Z,5.3
2023-09-10T14:38:02.861Z,5.2
2023-09-10T14:39:19.002Z,5.3
2023-09-10T14:40:45.040Z,5.3
2023-09-10T14:42:10.121Z,5.2
2023-09-10T14:43:18.996Z,5.1
2023-09-10T14:44:43.078Z,5.8
2023-09-10T14:46:08.202Z,5.7
2023-09-10T14:47:25.547Z,5.5
2023-09-10T14:48:49.617Z,5.5
2023-09-10T14:50:06.073Z,5.7
2023-09-10T14:51:26.467Z,5.8
2023-09-10T14:52:50.405Z,6.1
2023-09-10T14:54:10.619Z,5.9
2023-09-10T14:55:37.731Z,6.2
2023-09-10T14:57:01.848Z,6.1
2023-09-10T14:58:25.972Z,5.6
2023-09-10T14:59:52.110Z,5.4
2023-09-10T15:00:56.850Z,5.2
2023-09-10T15:02:26.169Z,5.1
2023-09-10T15:03:35.075Z,5
2023-09-10T15:04:58.914Z,5.1
2023-09-10T15:06:11.437Z,5.5
2023-09-10T15:07:35.490Z,6.2
2023-09-10T15:08:59.614Z,6.5
2023-09-10T15:10:25.168Z,6.7
2023-09-10T15:11:49.953Z,6.8
2023-09-10T15:13:16.956Z,6.9
2023-09-10T15:14:30.168Z,7.1
2023-09-10T15:15:47.788Z,7.2
2023-09-10T15:17:12.094Z,7.2
2023-09-10T15:18:39.111Z,7.5
2023-09-10T15:19:53.337Z,8
2023-09-10T15:21:06.249Z,8.6
2023-09-10T15:22:18.826Z,8.7
2023-09-10T15:23:45.041Z,8.5
2023-09-10T15:25:05.327Z,8.3
2023-09-10T15:26:17.954Z,8.1
2023-09-10T15:27:30.509Z,8.3
2023-09-10T15:28:51.202Z,8.4
2023-09-10T15:30:08.101Z,8.4
2023-09-10T15:31:27.953Z,8.5
2023-09-10T15:32:52.717Z,8.2
2023-09-10T15:34:16.856Z,7.8
2023-09-10T15:35:40.802Z,7.6
2023-09-10T15:37:04.907Z,7.6
2023-09-10T15:38:29.001Z,7.7
2023-09-10T15:39:54.135Z,7.9
2023-09-10T15:41:18.654Z,8.5
2023-09-10T15:42:44.360Z,8.8
2023-09-10T15:44:08.613Z,8.7
2023-09-10T15:45:32.606Z,8.9
2023-09-10T15:46:57.712Z,9.1
2023-09-10T15:48:21.757Z,9.3
2023-09-10T15:49:34.299Z,9.1
2023-09-10T15:50:59.438Z,10
2023-09-10T15:52:21.829Z,10
2023-09-10T15:53:45.819Z,10.3
2023-09-10T15:55:09.981Z,10.6
2023-09-10T15:56:36.119Z,10.9
2023-09-10T15:57:48.578Z,10.8
2023-09-10T15:59:01.138Z,11.1
2023-09-10T16:00:17.549Z,10.9
2023-09-10T16:01:31.279Z,11.2
2023-09-10T16:02:51.458Z,11.4
2023-09-10T16:04:15.567Z,11.9
2023-09-10T16:05:39.714Z,12.1
2023-09-10T16:06:56.050Z,12.3
2023-09-10T16:08:22.202Z,12.8
2023-09-10T16:09:46.251Z,13.6
2023-09-10T16:11:11.379Z,13.8
2023-09-10T16:12:23.859Z,13.9
2023-09-10T16:13:32.562Z,13.8
2023-09-10T16:14:48.921Z,13.7
2023-09-10T16:16:09.331Z,13.8
2023-09-10T16:17:26.677Z,14.9
2023-09-10T16:18:47.887Z,15
2023-09-10T16:20:11.195Z,15.2
2023-09-10T16:21:31.581Z,15.4
2023-09-10T16:22:54.082Z,16.4
2023-09-10T16:24:20.831Z,16.8
2023-09-10T16:25:37.626Z,16.9
2023-09-10T16:27:02.288Z,17
2023-09-10T16:28:26.446Z,17.1
2023-09-10T16:29:50.543Z,17.5
2023-09-10T16:31:15.811Z,17.8
2023-09-10T16:32:28.762Z,18.2
2023-09-10T16:33:49.950Z,18
2023-09-10T16:35:13.625Z,18.1
2023-09-10T16:36:37.596Z,18.8
2023-09-10T16:37:42.973Z,19.1
2023-09-10T16:39:07.643Z,19.2
2023-09-10T16:40:31.679Z,19.3
2023-09-10T16:41:48.118Z,19.6
2023-09-10T16:43:15.216Z,19.8
2023-09-10T16:44:20.537Z,20.2
2023-09-10T16:45:45.173Z,20.4
2023-09-10T16:47:10.437Z,20.5
2023-09-10T16:48:35.424Z,20.9
2023-09-10T16:50:02.604Z,21.3
2023-09-10T16:51:28.622Z,21.7
2023-09-10T16:52:49.863Z,21.9
2023-09-10T16:53:58.991Z,22.1
2023-09-10T16:55:23.667Z,22.3
2023-09-10T16:56:47.743Z,22.6
2023-09-10T16:58:11.928Z,22.9